Time;durP1;ratioP1;P1;durP2;ratioP2;P2;SDS_P1;SDS_P2;PMS_P1;PMS_P2;Temp;Humidity;BMP_temperature;BMP_pressure;BME280_temperature;BME280_humidity;BME280_pressure;Samples;Min_cycle;Max_cycle;Signal;HPM_P1;HPM_P2
2021/12/13 00:03:00;;;;;;;66.07;28.87;;;0.40;99.90;;;;;;10509020;28;20278;-80
2021/12/13 00:08:35;;;;;;;80.03;30.90;;;0.40;99.90;;;;;;10511310;28;20201;-80
2021/12/13 00:14:01;;;;;;;64.20;28.10;;;0.40;99.90;;;;;;10526687;28;20244;-80
2021/12/13 00:19:37;;;;;;;67.70;26.57;;;0.40;99.90;;;;;;10526294;28;20203;-79
2021/12/13 00:25:09;;;;;;;66.10;28.03;;;0.30;99.90;;;;;;10508100;28;20235;-79
2021/12/13 00:30:59;;;;;;;70.70;28.80;;;0.40;99.90;;;;;;10526123;28;20222;-79
2021/12/13 00:36:35;;;;;;;72.03;28.83;;;0.40;99.90;;;;;;10496887;28;20199;-79
2021/12/13 00:42:00;;;;;;;69.77;27.53;;;0.40;99.90;;;;;;10481471;28;20269;-80
2021/12/13 00:47:29;;;;;;;59.93;26.93;;;0.40;99.90;;;;;;10510142;28;20271;-80
2021/12/13 00:52:53;;;;;;;66.77;27.27;;;0.40;99.90;;;;;;10506751;28;20226;-79
2021/12/13 00:58:22;;;;;;;63.13;26.33;;;0.30;99.90;;;;;;10525118;28;20230;-79
2021/12/13 01:03:49;;;;;;;73.63;28.13;;;0.30;99.90;;;;;;10523895;28;20229;-79
2021/12/13 01:09:49;;;;;;;72.67;31.43;;;0.30;99.90;;;;;;10509080;28;20195;-79
2021/12/13 01:15:16;;;;;;;71.83;30.77;;;0.30;99.90;;;;;;10512722;28;20270;-79
2021/12/13 01:20:57;;;;;;;77.03;30.17;;;0.30;99.90;;;;;;10524164;28;20224;-79
2021/12/13 01:32:11;;;;;;;76.00;28.40;;;0.30;99.90;;;;;;10503225;28;20236;-79
2021/12/13 01:37:34;;;;;;;66.17;27.13;;;0.20;99.90;;;;;;10521732;28;20212;-80
2021/12/13 01:43:25;;;;;;;68.67;27.63;;;0.30;99.90;;;;;;10517876;28;20237;-79
2021/12/13 01:48:49;;;;;;;68.57;28.03;;;0.30;99.90;;;;;;10502583;28;20198;-79
2021/12/13 01:54:17;;;;;;;68.60;29.03;;;0.30;99.90;;;;;;10522867;28;20273;-79
2021/12/13 02:00:17;;;;;;;74.27;28.67;;;0.30;99.90;;;;;;10522571;28;20215;-79
2021/12/13 02:05:40;;;;;;;73.90;28.77;;;0.30;99.90;;;;;;10522054;28;20202;-79
2021/12/13 02:11:04;;;;;;;67.37;25.93;;;0.40;99.90;;;;;;10520674;28;20282;-80
2021/12/13 02:22:40;;;;;;;78.43;28.83;;;0.30;99.90;;;;;;10521600;28;20284;-79
2021/12/13 02:28:15;;;;;;;74.57;31.33;;;0.30;99.90;;;;;;10521400;28;20362;-76
2021/12/13 02:33:45;;;;;;;73.27;29.57;;;0.40;99.90;;;;;;10521165;28;20206;-76
2021/12/13 02:39:17;;;;;;;66.30;27.53;;;0.40;99.90;;;;;;10488137;28;20298;-76
2021/12/13 02:45:00;;;;;;;69.50;29.37;;;0.30;99.90;;;;;;10505611;28;20271;-76
2021/12/13 02:50:37;;;;;;;69.93;28.00;;;0.30;99.90;;;;;;10502961;28;20222;-76
2021/12/13 02:55:59;;;;;;;68.03;27.17;;;0.30;99.90;;;;;;10485954;28;20214;-77
2021/12/13 03:01:36;;;;;;;71.47;28.93;;;0.40;99.90;;;;;;10502364;28;20536;-78
2021/12/13 03:07:04;;;;;;;72.73;26.90;;;0.30;99.90;;;;;;10504014;28;20252;-79
2021/12/13 03:12:29;;;;;;;66.13;27.50;;;0.40;99.90;;;;;;10492567;28;20212;-78
2021/12/13 03:18:08;;;;;;;66.00;27.83;;;0.40;99.90;;;;;;10514952;28;20221;-78
2021/12/13 03:23:39;;;;;;;64.37;26.77;;;0.40;99.90;;;;;;10468146;28;20233;-79
2021/12/13 03:29:18;;;;;;;63.50;25.53;;;0.40;99.90;;;;;;10504553;28;20218;-77
2021/12/13 03:34:54;;;;;;;70.30;27.90;;;0.30;99.90;;;;;;10501799;28;20280;-80
2021/12/13 03:40:21;;;;;;;66.67;26.53;;;0.30;99.90;;;;;;10503600;28;20238;-80
2021/12/13 03:45:49;;;;;;;74.27;27.83;;;0.30;99.90;;;;;;10519002;28;20227;-80
2021/12/13 03:51:15;;;;;;;74.43;28.50;;;0.40;99.90;;;;;;10519254;28;20253;-80
2021/12/13 03:56:43;;;;;;;74.63;30.27;;;0.30;99.90;;;;;;10487224;28;20435;-80
2021/12/13 04:02:12;;;;;;;76.53;29.30;;;0.30;99.90;;;;;;10483658;28;20230;-79
2021/12/13 04:07:41;;;;;;;74.47;29.23;;;0.30;99.90;;;;;;10518143;28;20217;-78
2021/12/13 04:13:12;;;;;;;79.53;30.40;;;0.30;99.90;;;;;;10518479;28;20265;-77
2021/12/13 04:24:17;;;;;;;76.83;30.47;;;0.40;99.90;;;;;;10501035;28;20433;-77
2021/12/13 04:29:41;;;;;;;80.03;32.70;;;0.30;99.90;;;;;;10526099;28;20269;-78
2021/12/13 04:35:09;;;;;;;79.70;30.33;;;0.30;99.90;;;;;;10490274;28;20199;-77
2021/12/13 04:40:36;;;;;;;75.33;30.37;;;0.40;99.90;;;;;;10524614;28;20238;-79
2021/12/13 04:45:59;;;;;;;82.83;31.53;;;0.40;99.90;;;;;;10507727;28;20199;-79
2021/12/13 04:51:28;;;;;;;83.67;32.03;;;0.50;99.90;;;;;;10504124;28;20198;-79
2021/12/13 04:56:52;;;;;;;174.60;64.37;;;0.50;99.90;;;;;;10507036;28;20207;-79
2021/12/13 05:02:15;;;;;;;158.07;59.30;;;0.50;99.90;;;;;;10509720;28;20529;-78
2021/12/13 05:07:39;;;;;;;324.23;117.23;;;0.50;99.90;;;;;;10523956;28;20270;-77
2021/12/13 05:13:13;;;;;;;151.13;57.63;;;0.50;99.90;;;;;;10524057;28;20202;-77
2021/12/13 05:18:45;;;;;;;101.17;37.17;;;0.50;99.90;;;;;;10492277;28;20228;-78
2021/12/13 05:24:22;;;;;;;89.60;33.53;;;0.50;99.90;;;;;;10487322;28;20449;-77
2021/12/13 05:29:49;;;;;;;90.53;32.23;;;0.50;99.90;;;;;;10523789;28;20204;-77
2021/12/13 05:35:32;;;;;;;93.33;34.30;;;0.50;99.90;;;;;;10508567;28;20199;-78
2021/12/13 05:40:56;;;;;;;81.63;33.87;;;0.50;99.90;;;;;;10504179;28;20615;-78
2021/12/13 05:46:23;;;;;;;90.37;35.30;;;0.60;99.90;;;;;;10491016;28;20216;-78
2021/12/13 05:51:51;;;;;;;89.27;36.63;;;0.60;99.90;;;;;;10486631;28;20209;-76
2021/12/13 05:57:18;;;;;;;99.47;45.07;;;0.70;99.90;;;;;;10493876;28;20222;-77
2021/12/13 06:03:03;;;;;;;110.80;51.43;;;0.60;99.90;;;;;;10504449;28;20237;-80
2021/12/13 06:08:30;;;;;;;107.70;44.90;;;0.60;99.90;;;;;;10489521;28;20190;-79
2021/12/13 06:13:58;;;;;;;175.50;85.50;;;0.60;99.90;;;;;;10506004;28;20256;-80
2021/12/13 06:19:32;;;;;;;137.23;69.57;;;0.70;99.90;;;;;;10488529;28;20199;-80
2021/12/13 06:25:00;;;;;;;105.53;46.07;;;0.70;99.90;;;;;;10503315;28;20239;-77
2021/12/13 06:30:38;;;;;;;90.63;36.70;;;0.60;99.90;;;;;;10503354;28;20195;-77
2021/12/13 06:36:02;;;;;;;107.50;50.33;;;0.60;99.90;;;;;;10505694;28;20266;-80
2021/12/13 06:41:28;;;;;;;122.43;50.80;;;0.70;99.90;;;;;;10489689;28;20238;-79
2021/12/13 06:46:50;;;;;;;94.87;44.77;;;0.70;99.90;;;;;;10486068;28;20209;-77
2021/12/13 06:52:12;;;;;;;85.03;37.47;;;0.80;99.90;;;;;;10519163;28;20199;-78
2021/12/13 06:57:48;;;;;;;87.17;34.67;;;0.70;99.90;;;;;;10519166;28;20199;-77
2021/12/13 07:03:16;;;;;;;85.57;37.03;;;0.70;99.90;;;;;;10515093;28;20537;-77
2021/12/13 07:08:39;;;;;;;96.60;43.03;;;0.80;99.90;;;;;;10505096;28;20206;-79
2021/12/13 07:14:05;;;;;;;104.30;41.00;;;0.80;99.90;;;;;;10500482;28;20222;-78
2021/12/13 07:19:31;;;;;;;98.57;40.73;;;0.80;99.90;;;;;;10518252;28;20203;-79
2021/12/13 07:25:15;;;;;;;91.57;39.70;;;0.80;99.90;;;;;;10504608;28;20231;-78
2021/12/13 07:30:39;;;;;;;81.40;33.77;;;0.80;99.90;;;;;;10517616;28;20199;-78
2021/12/13 07:36:18;;;;;;;95.93;38.80;;;0.80;99.90;;;;;;10504097;28;20501;-78
2021/12/13 07:41:50;;;;;;;97.03;40.07;;;0.80;99.90;;;;;;10518911;28;20235;-79
2021/12/13 07:47:25;;;;;;;89.97;37.40;;;0.80;99.90;;;;;;10491162;28;20222;-77
2021/12/13 07:52:54;;;;;;;108.20;43.30;;;0.90;99.90;;;;;;10487192;28;20202;-79
2021/12/13 07:58:34;;;;;;;120.27;51.27;;;0.90;99.90;;;;;;10503706;28;20234;-78
2021/12/13 08:04:08;;;;;;;142.20;58.57;;;1.00;99.90;;;;;;10474543;28;20242;-80
2021/12/13 08:09:31;;;;;;;115.40;46.67;;;0.90;99.90;;;;;;10501219;28;20203;-80
2021/12/13 08:15:06;;;;;;;104.53;43.13;;;0.80;99.90;;;;;;10511313;28;20199;-79
2021/12/13 08:20:52;;;;;;;100.60;44.93;;;0.90;99.90;;;;;;10508154;28;20203;-80
2021/12/13 08:26:24;;;;;;;109.37;46.87;;;1.00;99.90;;;;;;10497796;28;20242;-80
2021/12/13 08:31:51;;;;;;;108.30;46.63;;;1.00;99.90;;;;;;10501682;28;20210;-81
2021/12/13 08:37:35;;;;;;;107.80;49.70;;;1.10;99.90;;;;;;10506512;28;20257;-81
2021/12/13 08:42:59;;;;;;;110.97;52.30;;;1.10;99.90;;;;;;10487067;28;20308;-84
2021/12/13 08:48:21;;;;;;;99.30;45.37;;;1.30;99.90;;;;;;10502562;28;20254;-76
2021/12/13 08:54:05;;;;;;;94.70;47.17;;;1.30;99.90;;;;;;10467515;28;20199;-79
2021/12/13 08:59:28;;;;;;;110.83;50.20;;;1.30;99.90;;;;;;10487826;28;20412;-77
2021/12/13 09:05:13;;;;;;;92.47;41.60;;;1.30;99.90;;;;;;10500860;28;20399;-79
2021/12/13 09:11:02;;;;;;;87.90;39.60;;;1.40;99.90;;;;;;10517690;28;20207;-79
2021/12/13 09:16:39;;;;;;;92.43;39.37;;;1.50;99.90;;;;;;10468280;28;20211;-80
2021/12/13 09:22:13;;;;;;;87.60;39.37;;;1.60;99.90;;;;;;10499760;28;20235;-80
2021/12/13 09:27:48;;;;;;;85.90;38.93;;;1.60;99.90;;;;;;10514795;28;20366;-80
2021/12/13 09:33:36;;;;;;;81.23;38.23;;;1.60;99.90;;;;;;10499525;28;20207;-80
2021/12/13 09:39:17;;;;;;;86.13;39.20;;;1.60;99.90;;;;;;10497736;28;20297;-77
2021/12/13 09:44:51;;;;;;;85.70;35.60;;;1.70;99.90;;;;;;10499817;28;20469;-82
2021/12/13 09:50:22;;;;;;;84.40;38.47;;;1.70;99.90;;;;;;10487221;28;20203;-84
2021/12/13 09:55:49;;;;;;;84.00;36.13;;;1.70;99.90;;;;;;10484216;28;20220;-81
2021/12/13 10:01:21;;;;;;;87.93;39.17;;;1.80;99.90;;;;;;10498037;28;20210;-83
2021/12/13 10:06:54;;;;;;;77.40;36.50;;;1.90;99.90;;;;;;10498429;28;20273;-77
2021/12/13 10:12:28;;;;;;;96.07;42.20;;;2.00;99.90;;;;;;10485595;28;20212;-79
2021/12/13 10:17:55;;;;;;;83.20;39.77;;;2.00;99.90;;;;;;10516052;28;20210;-79
2021/12/13 10:23:22;;;;;;;86.73;38.50;;;1.80;99.90;;;;;;10486270;28;20244;-80
2021/12/13 10:28:55;;;;;;;77.00;36.83;;;1.90;99.90;;;;;;10495567;28;20207;-80
2021/12/13 10:34:24;;;;;;;67.00;33.03;;;1.90;99.90;;;;;;10497699;28;20261;-79
2021/12/13 10:39:51;;;;;;;63.13;30.97;;;2.00;99.90;;;;;;10497446;28;20268;-81
2021/12/13 10:45:19;;;;;;;67.47;31.27;;;2.00;99.90;;;;;;10499747;28;20548;-81
2021/12/13 10:50:47;;;;;;;89.80;40.73;;;2.00;99.90;;;;;;10465207;28;20235;-80
2021/12/13 10:56:20;;;;;;;89.07;42.67;;;1.90;99.90;;;;;;10497540;28;20193;-80
2021/12/13 11:01:45;;;;;;;94.77;46.23;;;2.00;99.90;;;;;;10499230;28;20204;-79
2021/12/13 11:07:11;;;;;;;88.20;42.53;;;2.00;99.90;;;;;;10499726;28;20571;-79
2021/12/13 11:12:39;;;;;;;89.20;45.33;;;2.10;99.90;;;;;;10497461;28;20211;-78
2021/12/13 11:18:05;;;;;;;73.17;37.20;;;2.00;99.90;;;;;;10485556;28;20220;-77
2021/12/13 11:23:28;;;;;;;111.63;49.23;;;2.10;99.90;;;;;;10480341;28;20228;-77
2021/12/13 11:28:51;;;;;;;100.50;50.03;;;2.10;99.90;;;;;;10498547;28;20215;-77
2021/12/13 11:34:32;;;;;;;65.20;31.93;;;2.10;99.90;;;;;;10514369;28;20274;-84
2021/12/13 11:40:34;;;;;;;77.87;38.00;;;2.00;99.90;;;;;;10454231;28;20303;-78
2021/12/13 11:46:17;;;;;;;69.20;34.47;;;2.10;99.90;;;;;;10462468;28;20239;-79
2021/12/13 11:51:57;;;;;;;98.93;44.37;;;2.10;99.90;;;;;;10481465;28;20214;-80
2021/12/13 11:57:47;;;;;;;83.03;40.57;;;2.20;99.90;;;;;;10481740;28;20208;-79
2021/12/13 12:03:46;;;;;;;74.10;36.63;;;2.20;99.90;;;;;;10495820;28;20278;-83
2021/12/13 12:09:50;;;;;;;74.30;36.30;;;2.20;99.90;;;;;;10479431;28;20247;-79
2021/12/13 12:15:13;;;;;;;75.23;38.17;;;2.20;99.90;;;;;;10481787;28;20205;-79
2021/12/13 12:20:40;;;;;;;71.10;36.33;;;2.20;99.90;;;;;;10482185;28;20227;-79
2021/12/13 12:26:04;;;;;;;76.20;38.50;;;2.20;99.90;;;;;;10452885;28;20554;-79
2021/12/13 12:31:39;;;;;;;85.87;41.00;;;2.20;99.90;;;;;;10460190;28;20209;-77
2021/12/13 12:37:16;;;;;;;77.33;36.97;;;2.10;99.90;;;;;;10512058;28;20196;-75
2021/12/13 12:42:44;;;;;;;81.77;38.03;;;2.10;99.90;;;;;;10455744;28;20367;-81
2021/12/13 12:48:11;;;;;;;76.13;37.67;;;2.00;99.90;;;;;;10457378;28;20541;-81
2021/12/13 12:53:38;;;;;;;77.10;40.23;;;2.10;99.90;;;;;;10449689;28;20219;-80
2021/12/13 12:59:21;;;;;;;80.23;39.57;;;2.10;99.90;;;;;;10449084;28;20218;-80
2021/12/13 13:04:53;;;;;;;70.53;37.87;;;2.10;99.90;;;;;;10445615;28;20224;-80
2021/12/13 13:10:55;;;;;;;78.90;39.73;;;2.10;99.90;;;;;;10459858;28;20262;-79
2021/12/13 13:16:09;;;;;;;79.57;37.87;;;2.10;99.90;;;;;;10430430;28;20205;-81
2021/12/13 13:21:45;;;;;;;98.30;47.17;;;2.10;99.90;;;;;;10445688;28;20221;-80
2021/12/13 13:27:08;;;;;;;77.70;39.07;;;2.10;99.90;;;;;;10446641;28;20452;-82
2021/12/13 13:32:37;;;;;;;69.47;35.60;;;2.10;99.90;;;;;;10448919;28;20236;-79
2021/12/13 13:37:59;;;;;;;85.47;41.13;;;2.10;99.90;;;;;;10438539;28;20285;-84
2021/12/13 13:43:23;;;;;;;78.30;37.10;;;2.10;99.90;;;;;;10457295;28;20291;-86
2021/12/13 13:48:45;;;;;;;87.27;41.90;;;2.10;99.90;;;;;;10476289;28;20200;-83
2021/12/13 13:54:07;;;;;;;86.07;43.37;;;2.00;99.90;;;;;;10447563;28;20204;-80
2021/12/13 13:59:29;;;;;;;91.43;44.17;;;2.00;99.90;;;;;;10447421;28;20203;-80
2021/12/13 14:04:59;;;;;;;115.50;52.03;;;2.00;99.90;;;;;;10450037;28;20229;-86
2021/12/13 14:10:23;;;;;;;107.47;48.23;;;2.00;99.90;;;;;;10458525;28;20240;-83
2021/12/13 14:15:47;;;;;;;84.80;41.70;;;2.00;99.90;;;;;;10461872;28;20216;-78
2021/12/13 14:21:24;;;;;;;83.63;40.03;;;1.90;99.90;;;;;;10446532;28;20210;-87
2021/12/13 14:26:50;;;;;;;83.63;41.23;;;1.90;99.90;;;;;;10465923;28;20604;-85
2021/12/13 14:32:14;;;;;;;84.33;39.80;;;1.90;99.90;;;;;;10461430;28;20218;-92
2021/12/13 14:37:39;;;;;;;84.73;42.10;;;1.90;99.90;;;;;;10460600;28;20548;-86
2021/12/13 14:43:01;;;;;;;86.47;39.03;;;1.90;99.90;;;;;;10513745;28;20238;-85
2021/12/13 14:48:26;;;;;;;80.80;38.23;;;1.90;99.90;;;;;;10485235;28;20219;-86
2021/12/13 14:53:48;;;;;;;89.03;39.60;;;1.90;99.90;;;;;;10468470;28;20225;-83
2021/12/13 14:59:11;;;;;;;75.73;38.17;;;1.90;99.90;;;;;;10516624;28;20296;-84
2021/12/13 15:04:35;;;;;;;82.47;37.57;;;1.80;99.90;;;;;;10500590;28;20220;-83
2021/12/13 15:09:59;;;;;;;91.97;44.93;;;1.90;99.90;;;;;;10498069;28;20215;-84
2021/12/13 15:15:32;;;;;;;87.53;39.73;;;1.90;99.90;;;;;;10484760;28;20200;-90
2021/12/13 15:20:57;;;;;;;88.53;42.03;;;2.00;99.90;;;;;;10500444;28;20199;-79
2021/12/13 15:26:33;;;;;;;93.70;45.30;;;2.00;99.90;;;;;;10499922;28;20586;-85
2021/12/13 15:32:01;;;;;;;115.40;49.90;;;2.00;99.90;;;;;;10500236;28;20196;-86
2021/12/13 15:37:35;;;;;;;111.17;50.43;;;1.90;99.90;;;;;;10492411;28;20231;-84
2021/12/13 15:43:29;;;;;;;135.50;62.77;;;1.90;99.90;;;;;;10500371;28;20245;-80
2021/12/13 15:54:50;;;;;;;115.83;56.30;;;2.00;99.90;;;;;;10496595;28;20204;-80
2021/12/13 16:00:14;;;;;;;101.10;48.23;;;2.00;99.90;;;;;;10483669;28;20231;-83
2021/12/13 16:05:36;;;;;;;94.20;45.33;;;1.90;99.90;;;;;;10468174;28;20223;-82
2021/12/13 16:10:59;;;;;;;98.53;47.37;;;1.90;99.90;;;;;;10483411;28;20394;-80
2021/12/13 16:16:27;;;;;;;117.77;51.50;;;1.90;99.90;;;;;;10491944;28;20398;-81
2021/12/13 16:21:49;;;;;;;102.50;48.37;;;1.90;99.90;;;;;;10486874;28;20207;-81
2021/12/13 16:27:11;;;;;;;96.30;45.70;;;1.90;99.90;;;;;;10525144;28;20538;-81
2021/12/13 16:32:33;;;;;;;97.20;45.03;;;1.90;99.90;;;;;;10506516;28;20224;-82
2021/12/13 16:37:59;;;;;;;92.03;43.23;;;1.90;99.90;;;;;;10491018;28;20253;-81
2021/12/13 16:43:31;;;;;;;101.07;47.07;;;1.90;99.90;;;;;;10490923;28;20298;-82
2021/12/13 16:49:01;;;;;;;118.30;58.90;;;1.90;99.90;;;;;;10492720;28;20247;-81
2021/12/13 16:54:25;;;;;;;178.83;92.30;;;1.90;99.90;;;;;;10507667;28;20208;-82
2021/12/13 16:59:53;;;;;;;172.53;85.63;;;2.00;99.90;;;;;;10493459;28;20257;-82
2021/12/13 17:05:38;;;;;;;159.80;79.87;;;1.90;99.90;;;;;;10488970;28;20245;-81
2021/12/13 17:11:05;;;;;;;131.00;58.10;;;1.90;99.90;;;;;;10492935;28;20219;-81
2021/12/13 17:16:35;;;;;;;116.60;54.27;;;1.90;99.90;;;;;;10492551;28;20228;-82
2021/12/13 17:22:06;;;;;;;102.57;50.23;;;2.00;99.90;;;;;;10492946;28;20212;-82
2021/12/13 17:27:34;;;;;;;96.60;47.13;;;2.00;99.90;;;;;;10489441;28;20291;-82
2021/12/13 17:33:01;;;;;;;90.97;44.23;;;2.00;99.90;;;;;;10490881;28;20206;-81
2021/12/13 17:38:57;;;;;;;107.03;58.27;;;2.00;99.90;;;;;;10508684;28;20227;-81
2021/12/13 17:44:19;;;;;;;95.60;46.50;;;1.90;99.90;;;;;;10503546;28;20224;-81
2021/12/13 17:49:46;;;;;;;93.03;42.90;;;1.90;99.90;;;;;;10491648;28;20208;-81
2021/12/13 17:55:11;;;;;;;87.53;44.10;;;1.90;99.90;;;;;;10505329;28;20206;-82
2021/12/13 18:00:39;;;;;;;105.93;51.90;;;1.90;99.90;;;;;;10521928;28;20226;-80
2021/12/13 18:06:42;;;;;;;93.13;44.63;;;1.90;99.90;;;;;;10504453;28;20229;-81
2021/12/13 18:12:42;;;;;;;86.10;43.57;;;1.90;99.90;;;;;;10476236;28;20230;-81
2021/12/13 18:18:25;;;;;;;119.77;55.20;;;1.90;99.90;;;;;;10521474;28;20215;-82
2021/12/13 18:23:49;;;;;;;111.47;51.83;;;1.90;99.90;;;;;;10507345;28;20427;-84
2021/12/13 18:29:12;;;;;;;140.33;61.17;;;1.90;99.90;;;;;;10521011;28;20192;-84
2021/12/13 18:34:36;;;;;;;122.10;59.33;;;1.90;99.90;;;;;;10489214;28;20210;-83
2021/12/13 18:39:59;;;;;;;134.93;63.83;;;1.90;99.90;;;;;;10489508;28;20404;-84
2021/12/13 18:45:26;;;;;;;143.83;69.67;;;2.00;99.90;;;;;;10503326;28;20223;-83
2021/12/13 18:50:54;;;;;;;126.63;61.77;;;2.00;99.90;;;;;;10469194;28;20489;-84
2021/12/13 18:56:21;;;;;;;109.10;53.13;;;1.90;99.90;;;;;;10489084;28;20258;-84
2021/12/13 19:01:43;;;;;;;128.37;60.10;;;1.90;99.90;;;;;;10505538;28;20229;-83
2021/12/13 19:07:27;;;;;;;118.53;57.07;;;1.90;99.90;;;;;;10519686;28;20219;-84
2021/12/13 19:12:55;;;;;;;158.90;83.57;;;1.80;99.90;;;;;;10502257;28;20196;-81
2021/12/13 19:18:25;;;;;;;127.37;63.47;;;1.90;99.90;;;;;;10520146;28;20287;-81
2021/12/13 19:23:50;;;;;;;127.23;60.70;;;1.90;99.90;;;;;;10501988;28;20223;-82
2021/12/13 19:29:36;;;;;;;122.23;53.73;;;1.90;99.90;;;;;;10504665;28;20228;-81
2021/12/13 19:35:04;;;;;;;112.50;52.17;;;1.90;99.90;;;;;;10504134;28;20203;-82
2021/12/13 19:40:39;;;;;;;111.37;49.83;;;1.90;99.90;;;;;;10501349;28;20255;-79
2021/12/13 19:46:03;;;;;;;113.20;52.03;;;2.00;99.90;;;;;;10502193;28;20226;-83
2021/12/13 19:51:45;;;;;;;118.47;54.17;;;2.00;99.90;;;;;;10501637;28;20389;-80
2021/12/13 19:57:15;;;;;;;124.47;55.43;;;2.00;99.90;;;;;;10505056;28;20258;-79
2021/12/13 20:02:44;;;;;;;138.27;63.70;;;2.00;99.90;;;;;;10512147;28;20204;-82
2021/12/13 20:08:32;;;;;;;150.93;68.33;;;2.00;99.90;;;;;;10496226;28;20239;-79
2021/12/13 20:14:15;;;;;;;152.33;63.30;;;1.90;99.90;;;;;;10349392;28;20210;-82
2021/12/13 20:19:59;;;;;;;135.90;58.07;;;2.00;99.90;;;;;;10362915;28;20222;-82
2021/12/13 20:25:30;;;;;;;104.63;47.57;;;1.90;99.90;;;;;;10246498;29;20264;-80
2021/12/13 20:30:55;;;;;;;101.70;47.10;;;2.00;99.90;;;;;;10278139;28;20255;-81
2021/12/13 20:36:29;;;;;;;108.00;48.30;;;2.00;99.90;;;;;;10277421;28;20286;-81
2021/12/13 20:41:53;;;;;;;101.23;46.50;;;2.00;99.90;;;;;;10261548;28;20254;-81
2021/12/13 20:47:33;;;;;;;101.40;48.57;;;2.00;99.90;;;;;;10229247;28;20252;-80
2021/12/13 20:52:57;;;;;;;105.20;48.17;;;2.00;99.90;;;;;;10303679;28;20230;-80
2021/12/13 20:58:26;;;;;;;107.33;47.63;;;1.90;99.90;;;;;;10301152;28;20282;-82
2021/12/13 21:04:02;;;;;;;102.30;46.67;;;1.90;99.90;;;;;;10467980;28;20258;-85
2021/12/13 21:09:31;;;;;;;117.03;49.77;;;1.90;99.90;;;;;;10482561;28;20211;-82
2021/12/13 21:14:59;;;;;;;108.20;47.40;;;1.90;99.90;;;;;;10478888;28;20202;-83
2021/12/13 21:20:55;;;;;;;114.73;52.20;;;1.90;99.90;;;;;;10484783;28;20209;-82
2021/12/13 21:26:19;;;;;;;111.20;48.07;;;1.90;99.90;;;;;;10481978;28;20230;-82
2021/12/13 21:32:05;;;;;;;105.37;47.67;;;2.00;99.90;;;;;;10495804;28;20487;-82
2021/12/13 21:43:12;;;;;;;95.90;46.20;;;2.10;99.90;;;;;;10522707;28;20243;-81
2021/12/13 21:48:41;;;;;;;106.23;50.33;;;2.10;99.90;;;;;;10508708;28;20223;-81
2021/12/13 21:54:06;;;;;;;106.47;50.97;;;2.00;99.90;;;;;;10488400;28;20386;-82
2021/12/13 21:59:55;;;;;;;102.00;47.47;;;2.00;99.90;;;;;;10491318;28;20195;-81
2021/12/13 22:05:31;;;;;;;88.17;43.00;;;2.00;99.90;;;;;;10473825;28;20230;-81
2021/12/13 22:10:59;;;;;;;98.10;42.73;;;2.10;99.90;;;;;;10490907;28;20207;-84
2021/12/13 22:16:32;;;;;;;91.27;43.80;;;2.00;99.90;;;;;;10507157;28;20207;-81
2021/12/13 22:22:00;;;;;;;101.37;46.07;;;2.10;99.90;;;;;;10503615;28;20208;-82
2021/12/13 22:27:28;;;;;;;99.40;46.37;;;2.00;99.90;;;;;;10506802;28;20632;-80
2021/12/13 22:32:51;;;;;;;84.20;39.40;;;1.90;99.90;;;;;;10519866;28;20202;-80
2021/12/13 22:38:23;;;;;;;85.20;40.37;;;2.00;99.90;;;;;;10506628;28;20199;-79
2021/12/13 22:43:48;;;;;;;86.67;41.03;;;2.00;99.90;;;;;;10486579;28;20207;-80
2021/12/13 22:49:19;;;;;;;86.77;41.17;;;2.00;99.90;;;;;;10489140;28;20203;-81
2021/12/13 22:54:41;;;;;;;97.83;43.07;;;2.10;99.90;;;;;;10506099;28;20192;-83
2021/12/13 23:00:33;;;;;;;89.60;44.07;;;2.10;99.90;;;;;;10505703;28;20197;-80
2021/12/13 23:06:06;;;;;;;93.70;42.77;;;2.00;99.90;;;;;;10503064;28;20610;-80
2021/12/13 23:16:52;;;;;;;74.07;38.07;;;2.00;99.90;;;;;;10488175;28;20531;-81
2021/12/13 23:22:19;;;;;;;76.90;37.13;;;2.00;99.90;;;;;;10519464;28;20195;-81
2021/12/13 23:27:41;;;;;;;79.27;35.60;;;2.00;99.90;;;;;;10488102;28;20243;-81
2021/12/13 23:33:12;;;;;;;82.93;38.23;;;2.00;99.90;;;;;;10497574;28;20274;-82
2021/12/13 23:49:52;;;;;;;83.90;40.53;;;2.00;99.90;;;;;;10487637;28;20243;-80
2021/12/13 23:55:25;;;;;;;78.60;39.67;;;2.00;99.90;;;;;;10519367;28;20195;-81
